Time;durP1;ratioP1;P1;durP2;ratioP2;P2;SDS_P1;SDS_P2;PMS_P1;PMS_P2;Temp;Humidity;BMP_temperature;BMP_pressure;BME280_temperature;BME280_humidity;BME280_pressure;Samples;Min_cycle;Max_cycle;Signal;HPM_P1;HPM_P2
2021/12/03 00:00:49;;;;;;;;;;;0.20;99.90;;;;;;5047460;28;19931;-76
2021/12/03 00:03:16;;;;;;;;;;;-0.10;99.90;;;;;;5043562;28;20309;-76
2021/12/03 00:05:43;;;;;;;;;;;-0.30;99.90;;;;;;5048669;28;20374;-76
2021/12/03 00:08:12;;;;;;;;;;;-0.40;99.90;;;;;;5039832;28;20669;-76
2021/12/03 00:10:39;;;;;;;;;;;-0.70;99.90;;;;;;5045946;28;20007;-76
2021/12/03 00:13:07;;;;;;;;;;;-0.80;99.90;;;;;;5046748;28;19929;-76
2021/12/03 00:15:34;;;;;;;;;;;-1.00;99.90;;;;;;5048125;28;19925;-76
2021/12/03 00:18:03;;;;;;;;;;;-1.10;99.90;;;;;;5044694;28;19925;-76
2021/12/03 00:20:34;;;;;;;;;;;-1.00;99.90;;;;;;5036127;28;19929;-75
2021/12/03 00:23:01;;;;;;;;;;;-0.90;99.90;;;;;;5048563;28;19924;-77
2021/12/03 00:25:27;;;;;;;;;;;-0.90;99.90;;;;;;5047309;28;20011;-76
2021/12/03 00:27:54;;;;;;;;;;;-0.80;99.90;;;;;;5045500;28;19924;-76
2021/12/03 00:30:21;;;;;;;;;;;-0.80;99.90;;;;;;5043053;28;20344;-76
2021/12/03 00:32:48;;;;;;;;;;;-0.80;99.90;;;;;;5047605;28;19968;-76
2021/12/03 00:35:15;;;;;;;;;;;-0.80;99.90;;;;;;4984471;28;1799251;-76
2021/12/03 00:37:42;;;;;;;;;;;-0.80;99.90;;;;;;5049495;28;20004;-76
2021/12/03 00:40:11;;;;;;;;;;;-0.70;99.90;;;;;;5048259;28;19987;-76
2021/12/03 00:42:41;;;;;;;;;;;-0.70;99.90;;;;;;5049307;28;20217;-76
2021/12/03 00:45:11;;;;;;;;;;;-0.60;99.90;;;;;;5049169;28;20000;-76
2021/12/03 00:47:41;;;;;;;;;;;-0.60;99.90;;;;;;5055354;28;19934;-76
2021/12/03 00:50:12;;;;;;;;;;;-0.50;99.90;;;;;;5046273;28;19967;-77
2021/12/03 00:52:39;;;;;;;;;;;-0.50;99.90;;;;;;5041736;28;20026;-77
2021/12/03 00:55:07;;;;;;;;;;;-0.50;99.90;;;;;;5044805;28;19932;-77
2021/12/03 00:57:33;;;;;;;;;;;-0.50;99.90;;;;;;5046287;28;19935;-76
2021/12/03 01:00:00;;;;;;;;;;;-0.50;99.90;;;;;;5040700;28;19988;-76
2021/12/03 01:02:27;;;;;;;;;;;-0.50;99.90;;;;;;5047763;28;20305;-76
2021/12/03 01:04:56;;;;;;;;;;;-0.50;99.90;;;;;;5041038;28;20283;-77
2021/12/03 01:07:23;;;;;;;;;;;-0.50;99.90;;;;;;5047088;28;19933;-76
2021/12/03 01:09:50;;;;;;;;;;;-0.50;99.90;;;;;;5046631;28;20221;-77
2021/12/03 01:12:16;;;;;;;;;;;-0.50;99.90;;;;;;5062527;28;20411;-76
2021/12/03 01:14:44;;;;;;;;;;;-0.50;99.90;;;;;;5047293;28;19925;-76
2021/12/03 01:17:11;;;;;;;;;;;-0.50;99.90;;;;;;5045458;28;20492;-76
2021/12/03 01:19:37;;;;;;;;;;;-0.50;99.90;;;;;;5042467;28;19943;-77
2021/12/03 01:22:07;;;;;;;;;;;-0.60;99.90;;;;;;5047276;28;19933;-76
2021/12/03 01:24:34;;;;;;;;;;;-0.60;99.90;;;;;;5048840;28;19924;-76
2021/12/03 01:27:01;;;;;;;;;;;-0.60;99.90;;;;;;5040524;28;20427;-76
2021/12/03 01:29:27;;;;;;;;;;;-0.80;99.90;;;;;;5048362;28;19931;-77
2021/12/03 01:31:56;;;;;;;;;;;-1.00;99.90;;;;;;5036062;28;20012;-76
2021/12/03 01:34:23;;;;;;;;;;;-1.10;99.90;;;;;;5041012;28;20023;-77
2021/12/03 01:36:50;;;;;;;;;;;-1.40;99.90;;;;;;5048296;28;19944;-77
2021/12/03 01:39:17;;;;;;;;;;;-1.70;99.90;;;;;;5041288;28;19999;-75
2021/12/03 01:41:43;;;;;;;;;;;-1.90;99.90;;;;;;5048319;28;20280;-76
2021/12/03 01:44:10;;;;;;;;;;;-2.10;99.90;;;;;;5038783;28;19925;-76
2021/12/03 01:46:37;;;;;;;;;;;-2.20;99.90;;;;;;5046549;28;20011;-76
2021/12/03 01:49:04;;;;;;;;;;;-2.40;99.90;;;;;;5047435;28;19929;-76
2021/12/03 01:51:34;;;;;;;;;;;-2.50;99.90;;;;;;5047025;28;20039;-76
2021/12/03 01:54:01;;;;;;;;;;;-2.60;99.90;;;;;;5046669;28;20290;-76
2021/12/03 01:56:33;;;;;;;;;;;-2.70;99.90;;;;;;5050405;28;20362;-75
2021/12/03 01:59:00;;;;;;;;;;;-2.60;99.90;;;;;;5047732;28;20019;-76
2021/12/03 02:01:27;;;;;;;;;;;-2.50;99.90;;;;;;5046125;28;19967;-76
2021/12/03 02:03:56;;;;;;;;;;;-2.40;99.90;;;;;;5050680;28;19931;-76
2021/12/03 02:06:23;;;;;;;;;;;-2.30;99.90;;;;;;5034443;28;19984;-76
2021/12/03 02:08:51;;;;;;;;;;;-2.10;99.90;;;;;;5042224;28;20137;-76
2021/12/03 02:11:18;;;;;;;;;;;-2.10;99.90;;;;;;5044061;28;20026;-76
2021/12/03 02:13:45;;;;;;;;;;;-2.00;99.90;;;;;;5046704;28;20108;-76
2021/12/03 02:16:15;;;;;;;;;;;-1.90;99.90;;;;;;5045131;28;19925;-76
2021/12/03 02:18:42;;;;;;;;;;;-1.90;99.90;;;;;;5033170;28;20023;-76
2021/12/03 02:21:09;;;;;;;;;;;-1.80;99.90;;;;;;5040516;28;19931;-76
2021/12/03 02:23:37;;;;;;;;;;;-1.70;99.90;;;;;;5042734;28;19939;-76
2021/12/03 02:26:03;;;;;;;;;;;-1.70;99.90;;;;;;5041771;28;20020;-76
2021/12/03 02:28:31;;;;;;;;;;;-1.50;99.90;;;;;;5047933;28;20026;-76
2021/12/03 02:30:58;;;;;;;;;;;-1.40;99.90;;;;;;5044844;28;19924;-75
2021/12/03 02:33:25;;;;;;;;;;;-1.40;99.90;;;;;;5046331;28;19964;-76
2021/12/03 02:35:52;;;;;;;;;;;-1.50;99.90;;;;;;5044428;28;20017;-76
2021/12/03 02:38:20;;;;;;;;;;;-1.50;99.90;;;;;;5042939;28;19929;-76
2021/12/03 02:40:48;;;;;;;;;;;-1.40;99.90;;;;;;5044560;28;20401;-75
2021/12/03 02:43:15;;;;;;;;;;;-1.50;99.90;;;;;;5039264;28;19932;-76
2021/12/03 02:45:42;;;;;;;;;;;-1.50;99.90;;;;;;5041603;28;20016;-76
2021/12/03 02:48:09;;;;;;;;;;;-1.50;99.90;;;;;;5043679;28;20027;-76
2021/12/03 02:50:36;;;;;;;;;;;-1.50;99.90;;;;;;5062221;28;20041;-76
2021/12/03 02:53:03;;;;;;;;;;;-1.40;99.90;;;;;;5044938;28;20121;-76
2021/12/03 02:55:38;;;;;;;;;;;-1.40;99.90;;;;;;5036114;28;19962;-76
2021/12/03 02:58:05;;;;;;;;;;;-1.40;99.90;;;;;;5045853;28;20444;-76
2021/12/03 03:00:32;;;;;;;;;;;-1.40;99.90;;;;;;5047809;28;20290;-76
2021/12/03 03:02:59;;;;;;;;;;;-1.30;99.90;;;;;;5047476;28;20407;-76
2021/12/03 03:05:27;;;;;;;;;;;-1.30;99.90;;;;;;5048373;28;19931;-76
2021/12/03 03:07:54;;;;;;;;;;;-1.40;99.90;;;;;;5043244;28;19933;-76
2021/12/03 03:10:24;;;;;;;;;;;-1.40;99.90;;;;;;5046363;28;20421;-76
2021/12/03 03:12:52;;;;;;;;;;;-1.30;99.90;;;;;;5046952;28;19929;-76
2021/12/03 03:15:18;;;;;;;;;;;-1.30;99.90;;;;;;5041316;28;20535;-76
2021/12/03 03:17:45;;;;;;;;;;;-1.20;99.90;;;;;;5039496;28;20019;-76
2021/12/03 03:20:14;;;;;;;;;;;-1.20;99.90;;;;;;5044363;28;20392;-75
2021/12/03 03:22:41;;;;;;;;;;;-1.20;99.90;;;;;;5043952;28;20032;-75
2021/12/03 03:25:09;;;;;;;;;;;-1.20;99.90;;;;;;5044796;28;19925;-76
2021/12/03 03:27:36;;;;;;;;;;;-1.20;99.90;;;;;;5035728;28;19925;-75
2021/12/03 03:30:04;;;;;;;;;;;-1.30;99.90;;;;;;5049566;28;20028;-75
2021/12/03 03:32:32;;;;;;;;;;;-1.40;99.90;;;;;;5043800;28;19938;-76
2021/12/03 03:34:59;;;;;;;;;;;-1.60;99.90;;;;;;5046646;28;20017;-76
2021/12/03 03:37:26;;;;;;;;;;;-1.80;99.90;;;;;;5036787;28;19953;-76
2021/12/03 03:39:52;;;;;;;;;;;-2.00;99.90;;;;;;5043429;28;19960;-76
2021/12/03 03:42:19;;;;;;;;;;;-2.20;99.90;;;;;;5049590;28;19931;-76
2021/12/03 03:44:49;;;;;;;;;;;-2.30;99.90;;;;;;5042875;28;20450;-77
2021/12/03 03:47:17;;;;;;;;;;;-2.40;99.90;;;;;;5037489;28;20008;-76
2021/12/03 03:49:44;;;;;;;;;;;-2.50;99.90;;;;;;5046734;28;20061;-76
2021/12/03 03:52:11;;;;;;;;;;;-2.40;99.90;;;;;;5045632;28;20027;-76
2021/12/03 03:54:37;;;;;;;;;;;-2.30;99.90;;;;;;5041357;28;20001;-76
2021/12/03 03:57:04;;;;;;;;;;;-2.30;99.90;;;;;;5039893;28;19927;-76
2021/12/03 03:59:31;;;;;;;;;;;-2.20;99.90;;;;;;5048240;28;19974;-76
2021/12/03 04:01:58;;;;;;;;;;;-2.20;99.90;;;;;;5046011;28;19925;-77
2021/12/03 04:04:25;;;;;;;;;;;-2.30;99.90;;;;;;5047849;28;19925;-76
2021/12/03 04:06:53;;;;;;;;;;;-2.40;99.90;;;;;;5045099;28;19925;-76
2021/12/03 04:09:20;;;;;;;;;;;-2.50;99.90;;;;;;5048906;28;19925;-76
2021/12/03 04:11:47;;;;;;;;;;;-2.60;99.90;;;;;;5049716;28;19978;-76
2021/12/03 04:14:14;;;;;;;;;;;-2.70;99.90;;;;;;5048244;28;19983;-76
2021/12/03 04:16:40;;;;;;;;;;;-2.80;99.90;;;;;;5050378;28;19925;-76
2021/12/03 04:19:07;;;;;;;;;;;-2.80;99.90;;;;;;5066620;28;19956;-76
2021/12/03 04:21:34;;;;;;;;;;;-2.70;99.90;;;;;;5052176;28;20364;-76
2021/12/03 04:24:00;;;;;;;;;;;-2.70;99.90;;;;;;5040874;28;19963;-76
2021/12/03 04:26:27;;;;;;;;;;;-2.50;99.90;;;;;;5049491;28;19927;-76
2021/12/03 04:28:54;;;;;;;;;;;-2.40;99.90;;;;;;5047820;28;19928;-77
2021/12/03 04:31:21;;;;;;;;;;;-2.30;99.90;;;;;;5048808;28;20023;-76
2021/12/03 04:33:48;;;;;;;;;;;-2.20;99.90;;;;;;5048569;28;19939;-76
2021/12/03 04:36:14;;;;;;;;;;;-2.10;99.90;;;;;;5046907;28;20039;-76
2021/12/03 04:38:44;;;;;;;;;;;-2.10;99.90;;;;;;5044875;28;19933;-76
2021/12/03 04:41:11;;;;;;;;;;;-2.00;99.90;;;;;;5042911;28;19968;-75
2021/12/03 04:43:37;;;;;;;;;;;-1.90;99.90;;;;;;5047336;28;20123;-76
2021/12/03 04:46:04;;;;;;;;;;;-1.90;99.90;;;;;;5048088;28;20599;-76
2021/12/03 04:48:37;;;;;;;;;;;-2.10;99.90;;;;;;5043394;28;19974;-76
2021/12/03 04:51:04;;;;;;;;;;;-2.10;99.90;;;;;;5047320;28;20021;-76
2021/12/03 04:53:31;;;;;;;;;;;-2.10;99.90;;;;;;5038647;28;19974;-76
2021/12/03 04:55:57;;;;;;;;;;;-2.20;99.90;;;;;;5040857;28;20012;-76
2021/12/03 04:58:26;;;;;;;;;;;-2.30;99.90;;;;;;5047974;28;19932;-77
2021/12/03 05:00:54;;;;;;;;;;;-2.40;99.90;;;;;;5049199;28;19935;-77
2021/12/03 05:03:25;;;;;;;;;;;-2.50;99.90;;;;;;5047390;28;19925;-78
2021/12/03 05:05:56;;;;;;;;;;;-2.50;99.90;;;;;;5034490;28;20023;-77
2021/12/03 05:08:25;;;;;;;;;;;-2.60;99.90;;;;;;5045948;28;20023;-77
2021/12/03 05:10:53;;;;;;;;;;;-2.50;99.90;;;;;;5047131;28;19924;-77
2021/12/03 05:13:21;;;;;;;;;;;-2.50;99.90;;;;;;5047687;28;20012;-77
2021/12/03 05:15:48;;;;;;;;;;;-2.60;99.90;;;;;;5049165;28;19972;-77
2021/12/03 05:18:17;;;;;;;;;;;-2.60;99.90;;;;;;5046316;28;19934;-77
2021/12/03 05:20:48;;;;;;;;;;;-2.70;99.90;;;;;;5044381;28;20004;-77
2021/12/03 05:23:15;;;;;;;;;;;-2.80;99.90;;;;;;5040705;28;20023;-77
2021/12/03 05:25:42;;;;;;;;;;;-3.00;99.90;;;;;;5047097;28;20450;-77
2021/12/03 05:28:09;;;;;;;;;;;-3.10;99.90;;;;;;5029594;28;19925;-77
2021/12/03 05:30:37;;;;;;;;;;;-3.30;99.90;;;;;;5037518;28;19925;-77
2021/12/03 05:33:07;;;;;;;;;;;-3.40;99.90;;;;;;5043633;28;19932;-77
2021/12/03 05:35:34;;;;;;;;;;;-3.50;99.90;;;;;;5046783;28;20023;-77
2021/12/03 05:38:06;;;;;;;;;;;-3.60;99.90;;;;;;5045812;28;20324;-77
2021/12/03 05:40:33;;;;;;;;;;;-3.60;99.90;;;;;;5042142;28;19991;-77
2021/12/03 05:42:59;;;;;;;;;;;-3.60;99.90;;;;;;5046915;28;19934;-77
2021/12/03 05:45:28;;;;;;;;;;;-3.60;99.90;;;;;;5039200;28;20352;-77
2021/12/03 05:47:55;;;;;;;;;;;-3.60;99.90;;;;;;5029247;28;20312;-77
2021/12/03 05:50:22;;;;;;;;;;;-3.50;99.90;;;;;;5035794;28;19938;-77
2021/12/03 05:52:50;;;;;;;;;;;-3.40;99.90;;;;;;5042222;28;19985;-77
2021/12/03 05:55:25;;;;;;;;;;;-3.30;99.90;;;;;;5046022;28;19936;-77
2021/12/03 05:57:54;;;;;;;;;;;-3.30;99.90;;;;;;5048162;28;19935;-77
2021/12/03 06:00:30;;;;;;;;;;;-3.30;99.90;;;;;;5044000;28;19941;-77
2021/12/03 06:02:57;;;;;;;;;;;-3.30;99.90;;;;;;5048351;28;19925;-77
2021/12/03 06:05:28;;;;;;;;;;;-3.30;99.90;;;;;;5044613;28;19964;-77
2021/12/03 06:07:55;;;;;;;;;;;-3.30;99.90;;;;;;5044107;28;19925;-77
2021/12/03 06:10:22;;;;;;;;;;;-3.20;99.90;;;;;;5050676;28;20422;-77
2021/12/03 06:12:49;;;;;;;;;;;-3.30;99.90;;;;;;5045941;28;19970;-77
2021/12/03 06:15:16;;;;;;;;;;;-3.30;99.90;;;;;;5045902;28;20017;-77
2021/12/03 06:17:43;;;;;;;;;;;-3.30;99.90;;;;;;5045893;28;19925;-77
2021/12/03 06:20:11;;;;;;;;;;;-3.40;99.90;;;;;;5038900;28;20012;-77
2021/12/03 06:22:38;;;;;;;;;;;-3.50;99.90;;;;;;5037610;28;20151;-77
2021/12/03 06:25:06;;;;;;;;;;;-3.60;99.90;;;;;;5043527;28;19931;-77
2021/12/03 06:27:32;;;;;;;;;;;-3.80;99.90;;;;;;5049783;28;19932;-77
2021/12/03 06:29:59;;;;;;;;;;;-3.80;99.90;;;;;;5046114;28;19924;-77
2021/12/03 06:32:26;;;;;;;;;;;-3.90;99.90;;;;;;5046742;28;20029;-77
2021/12/03 06:34:53;;;;;;;;;;;-3.90;99.90;;;;;;5044121;28;20015;-77
2021/12/03 06:37:20;;;;;;;;;;;-4.00;99.90;;;;;;5044140;28;20015;-77
2021/12/03 06:39:46;;;;;;;;;;;-4.00;99.90;;;;;;5042209;28;20484;-76
2021/12/03 06:42:14;;;;;;;;;;;-4.00;99.90;;;;;;5046342;28;20291;-76
2021/12/03 06:44:40;;;;;;;;;;;-3.90;99.90;;;;;;5047934;28;19925;-77
2021/12/03 06:47:07;;;;;;;;;;;-3.80;99.90;;;;;;5036488;28;19935;-77
2021/12/03 06:49:34;;;;;;;;;;;-3.70;99.90;;;;;;5047373;28;19942;-77
2021/12/03 06:52:04;;;;;;;;;;;-3.70;99.90;;;;;;5048656;28;19924;-77
2021/12/03 06:54:33;;;;;;;;;;;-3.60;99.90;;;;;;5034703;28;20009;-77
2021/12/03 06:57:01;;;;;;;;;;;-3.60;99.90;;;;;;5045332;28;19924;-77
2021/12/03 06:59:27;;;;;;;;;;;-3.60;99.90;;;;;;5049244;28;19936;-77
2021/12/03 07:01:54;;;;;;;;;;;-3.50;99.90;;;;;;5047255;28;19985;-74
2021/12/03 07:04:22;;;;;;;;;;;-3.50;99.90;;;;;;5049261;28;19925;-74
2021/12/03 07:06:48;;;;;;;;;;;-3.40;99.90;;;;;;5049090;28;19937;-75
2021/12/03 07:09:16;;;;;;;;;;;-3.40;99.90;;;;;;5048191;28;19935;-75
2021/12/03 07:11:42;;;;;;;;;;;-3.40;99.90;;;;;;5051046;28;20041;-75
2021/12/03 07:14:09;;;;;;;;;;;-3.40;99.90;;;;;;5047928;28;19931;-75
2021/12/03 07:16:36;;;;;;;;;;;-3.40;99.90;;;;;;5049140;28;19971;-75
2021/12/03 07:19:03;;;;;;;;;;;-3.40;99.90;;;;;;5050716;28;20025;-75
2021/12/03 07:21:32;;;;;;;;;;;-3.30;99.90;;;;;;5046099;28;20021;-76
2021/12/03 07:23:59;;;;;;;;;;;-3.20;99.90;;;;;;5049478;28;20019;-75
2021/12/03 07:26:26;;;;;;;;;;;-3.20;99.90;;;;;;5047013;28;20341;-75
2021/12/03 07:28:54;;;;;;;;;;;-3.20;99.90;;;;;;5050313;28;19943;-74
2021/12/03 07:31:20;;;;;;;;;;;-3.20;99.90;;;;;;5043867;28;20406;-78
2021/12/03 07:33:48;;;;;;;;;;;-3.30;99.90;;;;;;5046226;28;19924;-77
2021/12/03 07:36:15;;;;;;;;;;;-3.30;99.90;;;;;;5050782;28;20304;-75
2021/12/03 07:38:41;;;;;;;;;;;-3.30;99.90;;;;;;5045324;28;19924;-75
2021/12/03 07:41:08;;;;;;;;;;;-3.10;99.90;;;;;;5049834;28;19924;-75
2021/12/03 07:43:35;;;;;;;;;;;-2.90;99.90;;;;;;5050452;28;20008;-76
2021/12/03 07:46:02;;;;;;;;;;;-2.80;99.90;;;;;;5045812;28;20199;-76
2021/12/03 07:48:29;;;;;;;;;;;-2.60;99.90;;;;;;5045784;28;19985;-79
2021/12/03 07:50:57;;;;;;;;;;;-2.40;99.90;;;;;;5045051;28;19925;-78
2021/12/03 07:53:27;;;;;;;;;;;-2.20;99.90;;;;;;5039226;28;19931;-78
2021/12/03 07:55:54;;;;;;;;;;;-1.90;99.90;;;;;;5041999;28;19937;-79
2021/12/03 07:58:24;;;;;;;;;;;-1.80;99.90;;;;;;5046581;28;20134;-79
2021/12/03 08:00:54;;;;;;;;;;;-1.50;99.90;;;;;;5047647;28;19979;-79
2021/12/03 08:03:21;;;;;;;;;;;-1.30;99.90;;;;;;5045616;28;19951;-79
2021/12/03 08:05:50;;;;;;;;;;;-1.20;99.90;;;;;;5048928;28;19925;-79
2021/12/03 08:08:22;;;;;;;;;;;-1.10;99.90;;;;;;5041551;28;19928;-78
2021/12/03 08:10:50;;;;;;;;;;;-1.10;99.90;;;;;;5048322;28;20024;-77
2021/12/03 08:13:17;;;;;;;;;;;-0.80;99.90;;;;;;5046972;28;19925;-77
2021/12/03 08:15:47;;;;;;;;;;;-0.70;99.90;;;;;;5045378;28;20011;-77
2021/12/03 08:18:14;;;;;;;;;;;-0.50;99.90;;;;;;5044657;28;19931;-77
2021/12/03 08:20:40;;;;;;;;;;;-0.30;99.90;;;;;;5049164;28;20015;-77
2021/12/03 08:23:07;;;;;;;;;;;-0.10;99.90;;;;;;5048218;28;19946;-77
2021/12/03 08:25:34;;;;;;;;;;;0.10;99.90;;;;;;5043666;28;19925;-74
2021/12/03 08:28:00;;;;;;;;;;;0.40;99.90;;;;;;5062099;28;19957;-76
2021/12/03 08:30:30;;;;;;;;;;;0.70;99.90;;;;;;5049136;28;19924;-74
2021/12/03 08:32:59;;;;;;;;;;;1.00;99.90;;;;;;5042621;28;19932;-76
2021/12/03 08:35:28;;;;;;;;;;;1.20;99.90;;;;;;5044793;28;19925;-77
2021/12/03 08:37:58;;;;;;;;;;;1.70;99.90;;;;;;5048160;28;19931;-76
2021/12/03 08:40:25;;;;;;;;;;;2.20;99.90;;;;;;5042097;28;19931;-77
2021/12/03 08:42:52;;;;;;;;;;;2.20;99.90;;;;;;5041609;28;19931;-77
2021/12/03 08:45:20;;;;;;;;;;;2.20;99.90;;;;;;5048575;28;19924;-76
2021/12/03 08:47:51;;;;;;;;;;;2.30;99.90;;;;;;5047598;28;19925;-76
2021/12/03 08:50:27;;;;;;;;;;;2.50;99.90;;;;;;5049619;28;20036;-74
2021/12/03 08:55:34;;;;;;;;;;;2.90;99.90;;;;;;5037241;28;19939;-77
2021/12/03 08:58:01;;;;;;;;;;;3.20;99.90;;;;;;5047440;28;19967;-75
2021/12/03 09:00:30;;;;;;;;;;;3.30;99.90;;;;;;5043966;28;20268;-75
2021/12/03 09:02:57;;;;;;;;;;;3.10;99.90;;;;;;5033896;28;19925;-74
2021/12/03 09:05:30;;;;;;;;;;;2.60;99.90;;;;;;5048465;28;20019;-75
2021/12/03 09:07:57;;;;;;;;;;;2.40;99.90;;;;;;5047030;28;20325;-75
2021/12/03 09:10:36;;;;;;;;;;;2.10;99.90;;;;;;5047875;28;19924;-75
2021/12/03 09:13:04;;;;;;;;;;;1.90;99.90;;;;;;5049136;28;20311;-75
2021/12/03 09:15:37;;;;;;;;;;;2.00;99.90;;;;;;5046105;28;19924;-75
2021/12/03 09:18:22;;;;;;;;;;;2.20;99.90;;;;;;5033533;28;19929;-75
2021/12/03 09:21:20;;;;;;;;;;;2.60;99.90;;;;;;5043471;28;19925;-75
2021/12/03 09:26:30;;;;;;;;;;;3.20;99.90;;;;;;5045453;28;19936;-75
2021/12/03 09:29:04;;;;;;;;;;;3.10;99.90;;;;;;5048733;28;19942;-75
2021/12/03 09:31:34;;;;;;;;;;;2.90;99.90;;;;;;5046837;28;19925;-75
2021/12/03 09:34:01;;;;;;;;;;;2.50;99.90;;;;;;5047421;28;20275;-75
2021/12/03 09:36:27;;;;;;;;;;;2.50;99.90;;;;;;5046518;28;20004;-75
2021/12/03 09:38:54;;;;;;;;;;;2.60;99.90;;;;;;5037407;28;20209;-75
2021/12/03 09:41:21;;;;;;;;;;;2.90;99.90;;;;;;5041359;28;19939;-75
2021/12/03 09:43:49;;;;;;;;;;;3.20;99.90;;;;;;5043858;28;19931;-75
2021/12/03 09:46:23;;;;;;;;;;;3.50;99.90;;;;;;5047423;28;19929;-75
2021/12/03 09:51:32;;;;;;;;;;;4.00;99.90;;;;;;5041068;28;20324;-74
2021/12/03 09:56:44;;;;;;;;;;;4.10;99.90;;;;;;5039999;28;19924;-75
2021/12/03 10:15:47;;;;;;;;;;;3.70;99.90;;;;;;5034510;28;20005;-75
2021/12/03 10:18:30;;;;;;;;;;;3.50;99.90;;;;;;5021037;28;20353;-76
2021/12/03 10:21:10;;;;;;;;;;;3.30;99.90;;;;;;5022923;28;20016;-77
2021/12/03 10:43:35;;;;;;;;;;;3.30;99.90;;;;;;4975055;28;19934;-75
2021/12/03 10:48:54;;;;;;;;;;;3.00;99.90;;;;;;4984911;28;19944;-76
2021/12/03 10:54:46;;;;;;;;;;;2.70;99.90;;;;;;4988044;28;20021;-75
2021/12/03 11:52:47;;;;;;;;;;;2.20;99.90;;;;;;5045413;28;19932;-76
2021/12/03 12:01:26;;;;;;;;;;;2.60;99.90;;;;;;5047338;28;20276;-77
2021/12/03 12:57:08;;;;;;;;;;;1.60;99.90;;;;;;5000328;28;19925;-76
2021/12/03 13:10:39;;;;;;;;;;;1.40;99.90;;;;;;5019797;28;19921;-76
2021/12/03 13:16:50;;;;;;;;;;;1.40;99.90;;;;;;5047876;28;19920;-76
2021/12/03 13:23:56;;;;;;;;;;;1.40;99.90;;;;;;5048606;28;19921;-76
2021/12/03 13:30:10;;;;;;;;;;;1.40;99.90;;;;;;5046092;28;19924;-76
2021/12/03 13:56:07;;;;;;;;;;;1.40;99.90;;;;;;5043302;28;20298;-76
2021/12/03 13:56:35;;;;;;;;;;;1.40;99.90;;;;;;5046423;28;19924;-76
2021/12/03 14:48:45;;;;;;;;;;;1.60;99.90;;;;;;4984758;28;20005;-76
2021/12/03 14:56:44;;;;;;;;;;;1.50;99.90;;;;;;4975922;28;20279;-76
2021/12/03 14:59:26;;;;;;;;;;;1.50;99.90;;;;;;4983126;28;20032;-76
2021/12/03 15:04:50;;;;;;;;;;;1.40;99.90;;;;;;4992653;28;20834;-77
2021/12/03 15:07:23;;;;;;;;;;;1.40;99.90;;;;;;4998759;28;20382;-77
2021/12/03 15:09:54;;;;;;;;;;;1.40;99.90;;;;;;5040734;28;19928;-76
2021/12/03 15:23:21;;;;;;;;;;;1.30;99.90;;;;;;5048456;28;20307;-76
2021/12/03 15:25:56;;;;;;;;;;;1.30;99.90;;;;;;5052339;28;19947;-76
2021/12/03 15:35:56;;;;;;;;;;;1.00;99.90;;;;;;5049017;28;19992;-76
2021/12/03 15:38:39;;;;;;;;;;;1.00;99.90;;;;;;5049191;28;19929;-76
2021/12/03 15:41:38;;;;;;;;;;;1.00;99.90;;;;;;5043331;28;19989;-77
2021/12/03 16:08:35;;;;;;;;;;;0.50;99.90;;;;;;5047447;28;19920;-76
2021/12/03 16:13:36;;;;;;;;;;;0.60;99.90;;;;;;5046968;28;19931;-76
2021/12/03 16:20:00;;;;;;;;;;;0.60;99.90;;;;;;5046845;28;20387;-76
2021/12/03 16:54:06;;;;;;;;;;;0.70;99.90;;;;;;5046696;28;20016;-76
2021/12/03 16:56:33;;;;;;;;;;;0.80;99.90;;;;;;5034457;28;19924;-76
2021/12/03 16:59:00;;;;;;;;;;;0.80;99.90;;;;;;5045847;28;19924;-76
2021/12/03 17:01:54;;;;;;;;;;;0.80;99.90;;;;;;5042444;28;19962;-76
2021/12/03 17:10:22;;;;;;;;;;;0.80;99.90;;;;;;5044823;28;20035;-76
2021/12/03 17:13:07;;;;;;;;;;;0.80;99.90;;;;;;5049482;28;19920;-76
2021/12/03 17:18:55;;;;;;;;;;;0.70;99.90;;;;;;5041211;28;20011;-76
2021/12/03 17:48:28;;;;;;;;;;;1.30;99.90;;;;;;5047953;28;20080;-76
2021/12/03 17:51:15;;;;;;;;;;;1.30;99.90;;;;;;5044598;28;19927;-76
2021/12/03 17:56:19;;;;;;;;;;;1.40;99.90;;;;;;5048181;28;19929;-76
2021/12/03 17:59:32;;;;;;;;;;;1.40;99.90;;;;;;5039907;28;20018;-76
2021/12/03 18:02:06;;;;;;;;;;;1.40;99.90;;;;;;5046009;28;20346;-77
2021/12/03 18:09:49;;;;;;;;;;;1.50;99.90;;;;;;5043874;28;19921;-76
2021/12/03 18:58:00;;;;;;;;;;;1.70;99.90;;;;;;5044736;28;20305;-77
2021/12/03 19:00:29;;;;;;;;;;;1.70;99.90;;;;;;5049834;28;19920;-78
2021/12/03 19:03:02;;;;;;;;;;;1.70;99.90;;;;;;5049211;28;20011;-76
2021/12/03 19:05:40;;;;;;;;;;;1.70;99.90;;;;;;5050577;28;19927;-75
2021/12/03 19:08:11;;;;;;;;;;;1.70;99.90;;;;;;5041987;28;20272;-76
2021/12/03 19:10:44;;;;;;;;;;;1.70;99.90;;;;;;5045188;28;20026;-77
2021/12/03 19:13:35;;;;;;;;;;;1.70;99.90;;;;;;5050152;28;19941;-77
2021/12/03 19:16:03;;;;;;;;;;;1.70;99.90;;;;;;5041642;28;19947;-77
2021/12/03 19:18:29;;;;;;;;;;;1.80;99.90;;;;;;5049141;28;20263;-76
2021/12/03 19:20:57;;;;;;;;;;;1.80;99.90;;;;;;5046118;28;19939;-77
2021/12/03 19:23:24;;;;;;;;;;;1.80;99.90;;;;;;5048955;28;19920;-76
2021/12/03 19:25:51;;;;;;;;;;;1.80;99.90;;;;;;5050494;28;19923;-76
2021/12/03 19:28:19;;;;;;;;;;;1.80;99.90;;;;;;5046146;28;19929;-75
2021/12/03 19:30:46;;;;;;;;;;;1.80;99.90;;;;;;5052170;28;20015;-76
2021/12/03 19:33:15;;;;;;;;;;;1.70;99.90;;;;;;5052092;28;19942;-76
2021/12/03 19:35:45;;;;;;;;;;;1.70;99.90;;;;;;5045790;28;19949;-78
2021/12/03 19:38:16;;;;;;;;;;;1.70;99.90;;;;;;5047145;28;19924;-76
2021/12/03 19:40:53;;;;;;;;;;;1.70;99.90;;;;;;5043046;28;19920;-76
2021/12/03 19:43:27;;;;;;;;;;;1.70;99.90;;;;;;5034004;28;19920;-77
2021/12/03 19:46:02;;;;;;;;;;;1.70;99.90;;;;;;5056717;28;19921;-76
2021/12/03 19:48:39;;;;;;;;;;;1.70;99.90;;;;;;5043677;28;20374;-76
2021/12/03 19:51:15;;;;;;;;;;;1.70;99.90;;;;;;5046782;28;19932;-76
2021/12/03 19:54:05;;;;;;;;;;;1.70;99.90;;;;;;5039917;28;19992;-76
2021/12/03 19:56:31;;;;;;;;;;;1.80;99.90;;;;;;5045051;28;19955;-77
2021/12/03 19:58:59;;;;;;;;;;;1.80;99.90;;;;;;5046436;28;19963;-77
2021/12/03 20:01:31;;;;;;;;;;;1.80;99.90;;;;;;5048990;28;19924;-77
2021/12/03 20:03:58;;;;;;;;;;;1.80;99.90;;;;;;5063581;28;20088;-77
2021/12/03 20:06:26;;;;;;;;;;;1.90;99.90;;;;;;5052934;28;20494;-77
2021/12/03 20:08:58;;;;;;;;;;;1.90;99.90;;;;;;5049149;28;20299;-78
2021/12/03 20:11:38;;;;;;;;;;;1.80;99.90;;;;;;5044193;28;19927;-77
2021/12/03 20:14:07;;;;;;;;;;;1.90;99.90;;;;;;5063836;28;20015;-77
2021/12/03 20:16:41;;;;;;;;;;;1.90;99.90;;;;;;5042737;28;20130;-77
2021/12/03 20:19:21;;;;;;;;;;;1.90;99.90;;;;;;5054214;28;19925;-77
2021/12/03 20:21:54;;;;;;;;;;;1.90;99.90;;;;;;5048654;28;19921;-77
2021/12/03 20:27:13;;;;;;;;;;;1.90;99.90;;;;;;5030420;28;19935;-77
2021/12/03 20:29:56;;;;;;;;;;;1.80;99.90;;;;;;5044377;28;20414;-77
2021/12/03 20:37:37;;;;;;;;;;;1.80;99.90;;;;;;5047117;28;19959;-77
2021/12/03 20:40:14;;;;;;;;;;;1.80;99.90;;;;;;5044003;28;19935;-77
2021/12/03 20:43:01;;;;;;;;;;;1.80;99.90;;;;;;5039752;28;19927;-76
2021/12/03 20:48:09;;;;;;;;;;;1.80;99.90;;;;;;5045525;28;19927;-77
2021/12/03 21:09:40;;;;;;;;;;;1.90;99.90;;;;;;5047058;28;19986;-77
2021/12/03 21:12:18;;;;;;;;;;;1.90;99.90;;;;;;5049782;28;20363;-77
2021/12/03 21:14:54;;;;;;;;;;;1.90;99.90;;;;;;5051086;28;19925;-77
2021/12/03 21:20:28;;;;;;;;;;;1.90;99.90;;;;;;5083166;28;20612;-77
2021/12/03 21:22:58;;;;;;;;;;;1.90;99.90;;;;;;5053201;28;19921;-77
2021/12/03 21:25:30;;;;;;;;;;;1.90;99.90;;;;;;5044230;28;20020;-77
2021/12/03 21:28:16;;;;;;;;;;;1.90;99.90;;;;;;5054634;28;19925;-77
2021/12/03 21:41:28;;;;;;;;;;;1.90;99.90;;;;;;5050949;28;19921;-76
2021/12/03 21:44:00;;;;;;;;;;;1.90;99.90;;;;;;5049171;28;19931;-77
2021/12/03 21:46:32;;;;;;;;;;;1.90;99.90;;;;;;5048572;28;19970;-77
2021/12/03 21:48:58;;;;;;;;;;;1.90;99.90;;;;;;5052954;28;20025;-77
2021/12/03 21:51:26;;;;;;;;;;;1.90;99.90;;;;;;5048295;28;20005;-77
2021/12/03 21:53:54;;;;;;;;;;;1.90;99.90;;;;;;5060927;28;20007;-76
2021/12/03 21:56:24;;;;;;;;;;;1.90;99.90;;;;;;5036672;28;19943;-77
2021/12/03 21:58:51;;;;;;;;;;;1.90;99.90;;;;;;5045792;28;20460;-77
2021/12/03 22:01:18;;;;;;;;;;;1.90;99.90;;;;;;5051921;28;19971;-76
2021/12/03 22:03:45;;;;;;;;;;;1.90;99.90;;;;;;5051204;28;19921;-77
2021/12/03 22:06:12;;;;;;;;;;;1.80;99.90;;;;;;5050586;28;19968;-77
2021/12/03 22:08:39;;;;;;;;;;;1.80;99.90;;;;;;5050789;28;19953;-77
2021/12/03 22:11:06;;;;;;;;;;;1.80;99.90;;;;;;5042739;28;20003;-77
2021/12/03 22:13:33;;;;;;;;;;;1.80;99.90;;;;;;5045116;28;19925;-77
2021/12/03 22:16:00;;;;;;;;;;;1.80;99.90;;;;;;5046817;28;20016;-77
2021/12/03 22:18:27;;;;;;;;;;;1.80;99.90;;;;;;5046927;28;19921;-77
2021/12/03 22:20:55;;;;;;;;;;;1.80;99.90;;;;;;5045212;28;19924;-77
2021/12/03 22:23:22;;;;;;;;;;;1.80;99.90;;;;;;5046766;28;19931;-77
2021/12/03 22:25:49;;;;;;;;;;;1.80;99.90;;;;;;5046337;28;19935;-77
2021/12/03 22:28:16;;;;;;;;;;;1.80;99.90;;;;;;5038982;28;20227;-77
2021/12/03 22:30:45;;;;;;;;;;;1.90;99.90;;;;;;5053035;28;19920;-77
2021/12/03 22:33:12;;;;;;;;;;;1.90;99.90;;;;;;5040038;28;20020;-77
2021/12/03 22:35:39;;;;;;;;;;;1.90;99.90;;;;;;5048164;28;19937;-76
2021/12/03 22:38:09;;;;;;;;;;;1.90;99.90;;;;;;5051256;28;19920;-77
2021/12/03 22:40:40;;;;;;;;;;;1.90;99.90;;;;;;5050452;28;19921;-77